sensor_id;sensor_type;location;lat;lon;timestamp;pressure;altitude;pressure_sealevel;temperature;humidity
39613;BME280;25303;48.896;13.342;2022-08-19T00:01:06;92266.22;;;18.13;77.38
39613;BME280;25303;48.896;13.342;2022-08-19T00:03:49;92262.81;;;18.12;77.40
39613;BME280;25303;48.896;13.342;2022-08-19T00:06:33;92277.13;;;18.03;78.01
39613;BME280;25303;48.896;13.342;2022-08-19T00:09:19;92292.34;;;17.81;79.48
39613;BME280;25303;48.896;13.342;2022-08-19T00:12:03;92305.56;;;17.79;80.19
39613;BME280;25303;48.896;13.342;2022-08-19T00:14:47;92316.94;;;17.85;80.10
39613;BME280;25303;48.896;13.342;2022-08-19T00:17:30;92331.06;;;17.96;79.93
39613;BME280;25303;48.896;13.342;2022-08-19T00:20:16;92347.38;;;18.10;78.97
39613;BME280;25303;48.896;13.342;2022-08-19T00:23:00;92352.69;;;18.21;78.39
39613;BME280;25303;48.896;13.342;2022-08-19T00:25:46;92366.00;;;18.32;78.09
39613;BME280;25303;48.896;13.342;2022-08-19T00:28:29;92367.78;;;18.38;77.33
39613;BME280;25303;48.896;13.342;2022-08-19T00:31:18;92369.94;;;18.41;77.37
39613;BME280;25303;48.896;13.342;2022-08-19T00:34:01;92358.28;;;18.44;76.68
39613;BME280;25303;48.896;13.342;2022-08-19T00:36:45;92361.25;;;18.47;76.55
39613;BME280;25303;48.896;13.342;2022-08-19T00:39:28;92366.03;;;18.50;76.55
39613;BME280;25303;48.896;13.342;2022-08-19T00:42:11;92365.81;;;18.52;75.85
39613;BME280;25303;48.896;13.342;2022-08-19T00:44:57;92357.56;;;18.55;75.95
39613;BME280;25303;48.896;13.342;2022-08-19T00:47:41;92360.75;;;18.57;75.84
39613;BME280;25303;48.896;13.342;2022-08-19T00:50:24;92361.31;;;18.59;75.18
39613;BME280;25303;48.896;13.342;2022-08-19T00:53:08;92359.53;;;18.60;74.93
39613;BME280;25303;48.896;13.342;2022-08-19T00:55:55;92354.31;;;18.60;75.25
39613;BME280;25303;48.896;13.342;2022-08-19T00:58:39;92348.88;;;18.61;75.35
39613;BME280;25303;48.896;13.342;2022-08-19T01:01:22;92322.81;;;18.61;74.91
39613;BME280;25303;48.896;13.342;2022-08-19T01:04:07;92319.97;;;18.63;74.89
39613;BME280;25303;48.896;13.342;2022-08-19T01:06:50;92325.19;;;18.63;74.50
39613;BME280;25303;48.896;13.342;2022-08-19T01:09:33;92326.78;;;18.64;75.04
39613;BME280;25303;48.896;13.342;2022-08-19T01:12:17;92338.00;;;18.64;74.95
39613;BME280;25303;48.896;13.342;2022-08-19T01:15:01;92338.22;;;18.63;75.24
39613;BME280;25303;48.896;13.342;2022-08-19T01:17:44;92352.06;;;18.63;75.04
39613;BME280;25303;48.896;13.342;2022-08-19T01:20:30;92358.88;;;18.64;75.21
39613;BME280;25303;48.896;13.342;2022-08-19T01:23:15;92368.28;;;18.65;75.29
39613;BME280;25303;48.896;13.342;2022-08-19T01:25:58;92361.03;;;18.67;75.28
39613;BME280;25303;48.896;13.342;2022-08-19T01:28:44;92360.81;;;18.69;75.33
39613;BME280;25303;48.896;13.342;2022-08-19T01:31:29;92351.56;;;18.73;75.02
39613;BME280;25303;48.896;13.342;2022-08-19T01:34:14;92344.06;;;18.77;75.43
39613;BME280;25303;48.896;13.342;2022-08-19T01:36:57;92342.84;;;18.79;75.72
39613;BME280;25303;48.896;13.342;2022-08-19T01:39:42;92359.72;;;18.77;75.46
39613;BME280;25303;48.896;13.342;2022-08-19T01:42:25;92367.31;;;18.78;75.83
39613;BME280;25303;48.896;13.342;2022-08-19T01:45:11;92374.13;;;18.79;75.32
39613;BME280;25303;48.896;13.342;2022-08-19T01:47:54;92384.94;;;18.83;75.65
39613;BME280;25303;48.896;13.342;2022-08-19T01:50:43;92375.28;;;18.83;75.65
39613;BME280;25303;48.896;13.342;2022-08-19T01:53:26;92373.25;;;18.86;75.52
39613;BME280;25303;48.896;13.342;2022-08-19T01:56:16;92388.47;;;18.89;75.38
39613;BME280;25303;48.896;13.342;2022-08-19T01:59:02;92379.06;;;18.88;75.25
39613;BME280;25303;48.896;13.342;2022-08-19T02:01:46;92375.63;;;18.87;75.15
39613;BME280;25303;48.896;13.342;2022-08-19T02:04:29;92368.84;;;18.86;75.40
39613;BME280;25303;48.896;13.342;2022-08-19T02:07:12;92371.31;;;18.81;75.54
39613;BME280;25303;48.896;13.342;2022-08-19T02:09:55;92386.38;;;18.79;75.17
39613;BME280;25303;48.896;13.342;2022-08-19T02:12:40;92392.38;;;18.79;75.15
39613;BME280;25303;48.896;13.342;2022-08-19T02:15:24;92390.59;;;18.80;75.62
39613;BME280;25303;48.896;13.342;2022-08-19T02:18:07;92380.72;;;18.82;75.55
39613;BME280;25303;48.896;13.342;2022-08-19T02:20:51;92364.84;;;18.83;75.36
39613;BME280;25303;48.896;13.342;2022-08-19T02:23:34;92371.66;;;18.85;75.29
39613;BME280;25303;48.896;13.342;2022-08-19T02:26:17;92371.47;;;18.86;75.39
39613;BME280;25303;48.896;13.342;2022-08-19T02:29:02;92367.63;;;18.89;75.07
39613;BME280;25303;48.896;13.342;2022-08-19T02:31:45;92372.59;;;18.90;75.00
39613;BME280;25303;48.896;13.342;2022-08-19T02:34:29;92368.41;;;18.89;74.97
39613;BME280;25303;48.896;13.342;2022-08-19T02:37:12;92371.81;;;18.90;74.91
39613;BME280;25303;48.896;13.342;2022-08-19T02:40:10;92370.81;;;18.91;74.84
39613;BME280;25303;48.896;13.342;2022-08-19T02:42:54;92362.41;;;18.89;75.74
39613;BME280;25303;48.896;13.342;2022-08-19T02:45:39;92356.88;;;18.78;76.27
39613;BME280;25303;48.896;13.342;2022-08-19T02:48:24;92361.25;;;18.66;76.85
39613;BME280;25303;48.896;13.342;2022-08-19T02:51:08;92351.78;;;18.53;77.13
39613;BME280;25303;48.896;13.342;2022-08-19T02:53:52;92353.13;;;18.37;78.07
39613;BME280;25303;48.896;13.342;2022-08-19T02:56:35;92339.50;;;18.16;79.67
39613;BME280;25303;48.896;13.342;2022-08-19T02:59:18;92326.06;;;17.94;80.45
39613;BME280;25303;48.896;13.342;2022-08-19T03:02:05;92334.94;;;17.86;80.29
39613;BME280;25303;48.896;13.342;2022-08-19T03:04:48;92343.78;;;17.85;80.43
39613;BME280;25303;48.896;13.342;2022-08-19T03:07:31;92347.38;;;17.84;80.48
39613;BME280;25303;48.896;13.342;2022-08-19T03:10:14;92354.78;;;17.87;80.33
39613;BME280;25303;48.896;13.342;2022-08-19T03:12:58;92370.13;;;17.96;79.86
39613;BME280;25303;48.896;13.342;2022-08-19T03:15:47;92380.66;;;18.07;79.93
39613;BME280;25303;48.896;13.342;2022-08-19T03:18:31;92396.03;;;18.16;79.72
39613;BME280;25303;48.896;13.342;2022-08-19T03:21:16;92396.16;;;18.21;79.11
39613;BME280;25303;48.896;13.342;2022-08-19T03:24:02;92389.53;;;18.25;78.75
39613;BME280;25303;48.896;13.342;2022-08-19T03:26:48;92398.28;;;18.31;78.68
39613;BME280;25303;48.896;13.342;2022-08-19T03:29:33;92409.09;;;18.34;78.40
39613;BME280;25303;48.896;13.342;2022-08-19T03:32:24;92408.09;;;18.35;78.69
39613;BME280;25303;48.896;13.342;2022-08-19T03:35:15;92408.88;;;18.36;78.61
39613;BME280;25303;48.896;13.342;2022-08-19T03:37:58;92419.88;;;18.38;78.66
39613;BME280;25303;48.896;13.342;2022-08-19T03:40:41;92418.66;;;18.41;78.59
39613;BME280;25303;48.896;13.342;2022-08-19T03:43:25;92419.22;;;18.43;78.54
39613;BME280;25303;48.896;13.342;2022-08-19T03:46:11;92420.59;;;18.45;78.37
39613;BME280;25303;48.896;13.342;2022-08-19T03:48:56;92420.59;;;18.45;78.79
39613;BME280;25303;48.896;13.342;2022-08-19T03:51:42;92426.47;;;18.41;78.50
39613;BME280;25303;48.896;13.342;2022-08-19T03:54:26;92428.72;;;18.37;78.73
39613;BME280;25303;48.896;13.342;2022-08-19T03:57:10;92435.75;;;18.36;78.58
39613;BME280;25303;48.896;13.342;2022-08-19T03:59:53;92435.53;;;18.38;78.89
39613;BME280;25303;48.896;13.342;2022-08-19T04:02:53;92431.69;;;18.41;78.25
39613;BME280;25303;48.896;13.342;2022-08-19T04:05:39;92436.25;;;18.45;78.90
39613;BME280;25303;48.896;13.342;2022-08-19T04:08:23;92442.84;;;18.48;78.48
39613;BME280;25303;48.896;13.342;2022-08-19T04:11:08;92441.84;;;18.49;78.61
39613;BME280;25303;48.896;13.342;2022-08-19T04:13:52;92442.19;;;18.52;78.65
39613;BME280;25303;48.896;13.342;2022-08-19T04:16:36;92436.56;;;18.56;78.27
39613;BME280;25303;48.896;13.342;2022-08-19T04:19:19;92425.13;;;18.57;78.06
39613;BME280;25303;48.896;13.342;2022-08-19T04:22:04;92431.72;;;18.59;77.96
39613;BME280;25303;48.896;13.342;2022-08-19T04:24:49;92432.28;;;18.61;77.91
39613;BME280;25303;48.896;13.342;2022-08-19T04:27:32;92440.13;;;18.61;78.12
39613;BME280;25303;48.896;13.342;2022-08-19T04:30:16;92462.78;;;18.61;78.22
39613;BME280;25303;48.896;13.342;2022-08-19T04:32:59;92469.44;;;18.57;78.14
39613;BME280;25303;48.896;13.342;2022-08-19T04:35:44;92483.13;;;18.52;78.02
39613;BME280;25303;48.896;13.342;2022-08-19T04:38:29;92485.34;;;18.48;78.55
39613;BME280;25303;48.896;13.342;2022-08-19T04:41:14;92485.75;;;18.45;78.57
39613;BME280;25303;48.896;13.342;2022-08-19T04:44:15;92500.03;;;18.43;78.82
39613;BME280;25303;48.896;13.342;2022-08-19T04:47:00;92490.63;;;18.42;79.10
39613;BME280;25303;48.896;13.342;2022-08-19T04:49:52;92501.63;;;18.44;78.69
39613;BME280;25303;48.896;13.342;2022-08-19T04:52:35;92495.25;;;18.40;79.01
39613;BME280;25303;48.896;13.342;2022-08-19T04:55:18;92498.84;;;18.38;78.47
39613;BME280;25303;48.896;13.342;2022-08-19T04:58:03;92506.66;;;18.38;78.59
39613;BME280;25303;48.896;13.342;2022-08-19T05:00:46;92508.72;;;18.36;78.67
39613;BME280;25303;48.896;13.342;2022-08-19T05:03:29;92510.72;;;18.34;79.10
39613;BME280;25303;48.896;13.342;2022-08-19T05:06:17;92514.34;;;18.33;79.30
39613;BME280;25303;48.896;13.342;2022-08-19T05:09:02;92522.59;;;18.30;78.88
39613;BME280;25303;48.896;13.342;2022-08-19T05:11:46;92531.22;;;18.24;78.81
39613;BME280;25303;48.896;13.342;2022-08-19T05:14:32;92539.69;;;18.19;79.46
39613;BME280;25303;48.896;13.342;2022-08-19T05:17:15;92538.50;;;18.15;79.37
39613;BME280;25303;48.896;13.342;2022-08-19T05:20:18;92523.09;;;18.14;80.14
39613;BME280;25303;48.896;13.342;2022-08-19T05:23:19;92526.28;;;18.16;80.22
39613;BME280;25303;48.896;13.342;2022-08-19T05:26:04;92529.25;;;18.19;79.98
39613;BME280;25303;48.896;13.342;2022-08-19T05:28:47;92524.06;;;18.19;80.01
39613;BME280;25303;48.896;13.342;2022-08-19T05:31:37;92525.06;;;18.18;79.85
39613;BME280;25303;48.896;13.342;2022-08-19T05:34:24;92530.88;;;18.20;79.92
39613;BME280;25303;48.896;13.342;2022-08-19T05:37:08;92530.63;;;18.22;80.52
39613;BME280;25303;48.896;13.342;2022-08-19T05:39:51;92529.63;;;18.23;80.49
39613;BME280;25303;48.896;13.342;2022-08-19T05:42:34;92533.66;;;18.26;80.37
39613;BME280;25303;48.896;13.342;2022-08-19T05:45:17;92533.41;;;18.27;80.15
39613;BME280;25303;48.896;13.342;2022-08-19T05:48:02;92532.41;;;18.28;80.28
39613;BME280;25303;48.896;13.342;2022-08-19T05:50:45;92518.16;;;18.31;80.27
39613;BME280;25303;48.896;13.342;2022-08-19T05:53:31;92516.56;;;18.30;80.48
39613;BME280;25303;48.896;13.342;2022-08-19T05:56:18;92503.09;;;18.33;80.18
39613;BME280;25303;48.896;13.342;2022-08-19T05:59:02;92489.66;;;18.36;80.19
39613;BME280;25303;48.896;13.342;2022-08-19T06:01:47;92479.81;;;18.38;80.42
39613;BME280;25303;48.896;13.342;2022-08-19T06:04:33;92478.81;;;18.39;80.19
39613;BME280;25303;48.896;13.342;2022-08-19T06:07:17;92480.00;;;18.43;79.56
39613;BME280;25303;48.896;13.342;2022-08-19T06:10:01;92475.72;;;18.49;79.84
39613;BME280;25303;48.896;13.342;2022-08-19T06:12:44;92456.84;;;18.53;79.74
39613;BME280;25303;48.896;13.342;2022-08-19T06:15:27;92446.56;;;18.59;79.63
39613;BME280;25303;48.896;13.342;2022-08-19T06:18:10;92434.66;;;18.63;79.38
39613;BME280;25303;48.896;13.342;2022-08-19T06:20:55;92424.84;;;18.65;79.18
39613;BME280;25303;48.896;13.342;2022-08-19T06:23:38;92426.81;;;18.70;78.85
39613;BME280;25303;48.896;13.342;2022-08-19T06:26:22;92420.34;;;18.72;79.18
39613;BME280;25303;48.896;13.342;2022-08-19T06:29:07;92420.94;;;18.74;78.91
39613;BME280;25303;48.896;13.342;2022-08-19T06:32:04;92418.09;;;18.76;79.64
39613;BME280;25303;48.896;13.342;2022-08-19T06:34:47;92421.28;;;18.78;79.25
39613;BME280;25303;48.896;13.342;2022-08-19T06:37:32;92421.88;;;18.80;79.62
39613;BME280;25303;48.896;13.342;2022-08-19T06:40:15;92426.28;;;18.79;79.37
39613;BME280;25303;48.896;13.342;2022-08-19T06:42:58;92421.94;;;18.73;79.97
39613;BME280;25303;48.896;13.342;2022-08-19T06:45:46;92411.44;;;18.61;80.03
39613;BME280;25303;48.896;13.342;2022-08-19T06:48:30;92401.94;;;18.48;80.36
39613;BME280;25303;48.896;13.342;2022-08-19T06:51:19;92398.97;;;18.45;80.87
39613;BME280;25303;48.896;13.342;2022-08-19T06:54:05;92409.22;;;18.40;81.42
39613;BME280;25303;48.896;13.342;2022-08-19T06:57:00;92427.88;;;18.43;81.50
39613;BME280;25303;48.896;13.342;2022-08-19T06:59:44;92439.59;;;18.52;81.72
39613;BME280;25303;48.896;13.342;2022-08-19T07:02:27;92448.28;;;18.65;81.60
39613;BME280;25303;48.896;13.342;2022-08-19T07:05:11;92444.59;;;18.73;80.99
39613;BME280;25303;48.896;13.342;2022-08-19T07:07:54;92455.56;;;18.81;81.22
39613;BME280;25303;48.896;13.342;2022-08-19T07:10:45;92453.88;;;18.87;80.85
39613;BME280;25303;48.896;13.342;2022-08-19T07:13:29;92450.66;;;18.92;80.42
39613;BME280;25303;48.896;13.342;2022-08-19T07:16:19;92461.22;;;18.97;80.03
39613;BME280;25303;48.896;13.342;2022-08-19T07:19:10;92453.56;;;19.02;80.04
39613;BME280;25303;48.896;13.342;2022-08-19T07:22:01;92466.97;;;19.06;79.31
39613;BME280;25303;48.896;13.342;2022-08-19T07:24:44;92466.53;;;19.09;79.38
39613;BME280;25303;48.896;13.342;2022-08-19T07:27:33;92479.94;;;19.12;78.94
39613;BME280;25303;48.896;13.342;2022-08-19T07:30:16;92483.13;;;19.15;79.25
39613;BME280;25303;48.896;13.342;2022-08-19T07:32:59;92490.94;;;19.15;79.05
39613;BME280;25303;48.896;13.342;2022-08-19T07:35:44;92490.16;;;19.14;78.88
39613;BME280;25303;48.896;13.342;2022-08-19T07:38:27;92495.38;;;19.14;78.96
39613;BME280;25303;48.896;13.342;2022-08-19T07:41:12;92500.59;;;19.14;79.04
39613;BME280;25303;48.896;13.342;2022-08-19T07:43:57;92507.41;;;19.15;78.90
39613;BME280;25303;48.896;13.342;2022-08-19T07:46:42;92511.38;;;19.18;78.92
39613;BME280;25303;48.896;13.342;2022-08-19T07:49:29;92508.94;;;19.23;79.30
39613;BME280;25303;48.896;13.342;2022-08-19T07:52:13;92513.25;;;19.29;79.04
39613;BME280;25303;48.896;13.342;2022-08-19T07:54:58;92518.63;;;19.34;78.74
39613;BME280;25303;48.896;13.342;2022-08-19T07:57:45;92508.53;;;19.38;78.40
39613;BME280;25303;48.896;13.342;2022-08-19T08:00:29;92510.72;;;19.41;78.30
39613;BME280;25303;48.896;13.342;2022-08-19T08:03:13;92509.72;;;19.42;78.07
39613;BME280;25303;48.896;13.342;2022-08-19T08:05:56;92514.50;;;19.45;78.16
39613;BME280;25303;48.896;13.342;2022-08-19T08:08:57;92518.28;;;19.49;78.16
39613;BME280;25303;48.896;13.342;2022-08-19T08:12:10;92513.97;;;19.55;77.85
39613;BME280;25303;48.896;13.342;2022-08-19T08:15:14;92516.28;;;19.63;77.80
39613;BME280;25303;48.896;13.342;2022-08-19T08:18:01;92502.00;;;19.66;77.67
39613;BME280;25303;48.896;13.342;2022-08-19T08:20:44;92493.94;;;19.67;77.47
39613;BME280;25303;48.896;13.342;2022-08-19T08:23:27;92504.38;;;19.67;77.80
39613;BME280;25303;48.896;13.342;2022-08-19T08:26:11;92500.03;;;19.61;77.95
39613;BME280;25303;48.896;13.342;2022-08-19T08:28:56;92497.31;;;19.56;77.99
39613;BME280;25303;48.896;13.342;2022-08-19T08:31:41;92493.38;;;19.47;78.75
39613;BME280;25303;48.896;13.342;2022-08-19T08:34:26;92492.25;;;19.42;78.69
39613;BME280;25303;48.896;13.342;2022-08-19T08:37:09;92482.59;;;19.43;78.41
39613;BME280;25303;48.896;13.342;2022-08-19T08:39:52;92481.34;;;19.46;78.91
39613;BME280;25303;48.896;13.342;2022-08-19T08:42:39;92485.25;;;19.55;79.15
39613;BME280;25303;48.896;13.342;2022-08-19T08:45:28;92483.84;;;19.71;79.00
39613;BME280;25303;48.896;13.342;2022-08-19T08:48:26;92472.66;;;19.82;78.88
39613;BME280;25303;48.896;13.342;2022-08-19T08:51:18;92468.28;;;19.95;78.16
39613;BME280;25303;48.896;13.342;2022-08-19T08:54:05;92460.91;;;20.03;77.91
39613;BME280;25303;48.896;13.342;2022-08-19T08:56:52;92456.75;;;20.14;77.83
39613;BME280;25303;48.896;13.342;2022-08-19T08:59:38;92453.78;;;20.23;77.18
39613;BME280;25303;48.896;13.342;2022-08-19T09:02:22;92459.28;;;20.33;77.07
39613;BME280;25303;48.896;13.342;2022-08-19T09:05:06;92445.84;;;20.41;76.70
39613;BME280;25303;48.896;13.342;2022-08-19T09:08:02;92445.28;;;20.51;76.38
39613;BME280;25303;48.896;13.342;2022-08-19T09:10:51;92452.31;;;20.62;76.21
39613;BME280;25303;48.896;13.342;2022-08-19T09:13:44;92456.19;;;20.72;75.72
39613;BME280;25303;48.896;13.342;2022-08-19T09:16:30;92466.91;;;20.82;75.36
39613;BME280;25303;48.896;13.342;2022-08-19T09:19:14;92476.00;;;20.91;75.40
39613;BME280;25303;48.896;13.342;2022-08-19T09:22:03;92483.94;;;20.97;75.28
39613;BME280;25303;48.896;13.342;2022-08-19T09:24:49;92485.09;;;21.01;74.96
39613;BME280;25303;48.896;13.342;2022-08-19T09:27:35;92488.84;;;21.05;74.73
39613;BME280;25303;48.896;13.342;2022-08-19T09:30:26;92491.34;;;21.12;74.59
39613;BME280;25303;48.896;13.342;2022-08-19T09:33:12;92495.41;;;21.19;74.42
39613;BME280;25303;48.896;13.342;2022-08-19T09:36:02;92500.53;;;21.26;74.48
39613;BME280;25303;48.896;13.342;2022-08-19T09:38:49;92500.28;;;21.28;73.35
39613;BME280;25303;48.896;13.342;2022-08-19T09:41:33;92514.41;;;21.27;73.33
39613;BME280;25303;48.896;13.342;2022-08-19T09:44:17;92506.53;;;21.27;73.45
39613;BME280;25303;48.896;13.342;2022-08-19T09:47:02;92507.03;;;21.23;73.10
39613;BME280;25303;48.896;13.342;2022-08-19T09:49:46;92519.75;;;21.20;73.15
39613;BME280;25303;48.896;13.342;2022-08-19T09:52:30;92522.63;;;21.18;73.46
39613;BME280;25303;48.896;13.342;2022-08-19T09:55:13;92529.91;;;21.16;73.31
39613;BME280;25303;48.896;13.342;2022-08-19T09:58:03;92532.75;;;21.15;73.18
39613;BME280;25303;48.896;13.342;2022-08-19T10:00:46;92524.78;;;21.09;73.08
39613;BME280;25303;48.896;13.342;2022-08-19T10:03:33;92536.53;;;21.07;72.88
39613;BME280;25303;48.896;13.342;2022-08-19T10:06:18;92525.50;;;21.05;72.43
39613;BME280;25303;48.896;13.342;2022-08-19T10:09:21;92522.06;;;21.04;73.08
39613;BME280;25303;48.896;13.342;2022-08-19T10:12:15;92522.31;;;21.03;72.90
39613;BME280;25303;48.896;13.342;2022-08-19T10:15:04;92523.31;;;21.02;72.69
39613;BME280;25303;48.896;13.342;2022-08-19T10:17:47;92523.66;;;21.05;73.12
39613;BME280;25303;48.896;13.342;2022-08-19T10:20:36;92524.00;;;21.09;72.79
39613;BME280;25303;48.896;13.342;2022-08-19T10:23:20;92519.31;;;21.11;72.37
39613;BME280;25303;48.896;13.342;2022-08-19T10:26:05;92516.59;;;21.18;72.41
39613;BME280;25303;48.896;13.342;2022-08-19T10:28:48;92506.47;;;21.21;72.15
39613;BME280;25303;48.896;13.342;2022-08-19T10:34:37;92493.03;;;21.18;72.02
39613;BME280;25303;48.896;13.342;2022-08-19T10:37:29;92490.53;;;21.11;72.30
39613;BME280;25303;48.896;13.342;2022-08-19T10:40:13;92498.16;;;21.13;72.63
39613;BME280;25303;48.896;13.342;2022-08-19T10:42:56;92505.53;;;21.28;73.02
39613;BME280;25303;48.896;13.342;2022-08-19T10:45:39;92507.91;;;21.41;72.39
39613;BME280;25303;48.896;13.342;2022-08-19T10:48:35;92514.59;;;21.61;72.44
39613;BME280;25303;48.896;13.342;2022-08-19T10:51:18;92508.59;;;21.77;71.69
39613;BME280;25303;48.896;13.342;2022-08-19T10:54:29;92492.47;;;21.97;71.39
39613;BME280;25303;48.896;13.342;2022-08-19T10:57:30;92487.25;;;22.14;70.52
39613;BME280;25303;48.896;13.342;2022-08-19T11:00:33;92480.47;;;22.48;70.35
39613;BME280;25303;48.896;13.342;2022-08-19T11:03:18;92488.69;;;22.90;68.75
39613;BME280;25303;48.896;13.342;2022-08-19T11:06:04;92486.09;;;23.30;68.91
39613;BME280;25303;48.896;13.342;2022-08-19T11:08:48;92479.41;;;23.66;67.59
39613;BME280;25303;48.896;13.342;2022-08-19T11:11:31;92478.78;;;24.09;66.57
39613;BME280;25303;48.896;13.342;2022-08-19T11:14:20;92468.47;;;24.62;65.81
39613;BME280;25303;48.896;13.342;2022-08-19T11:17:07;92464.81;;;25.06;64.46
39613;BME280;25303;48.896;13.342;2022-08-19T11:19:50;92472.44;;;25.08;61.87
39613;BME280;25303;48.896;13.342;2022-08-19T11:22:34;92467.59;;;24.89;61.28
39613;BME280;25303;48.896;13.342;2022-08-19T11:25:22;92459.22;;;24.97;62.10
39613;BME280;25303;48.896;13.342;2022-08-19T11:28:05;92454.97;;;25.44;61.74
39613;BME280;25303;48.896;13.342;2022-08-19T11:30:49;92453.53;;;25.85;59.83
39613;BME280;25303;48.896;13.342;2022-08-19T11:33:32;92448.53;;;26.04;56.69
39613;BME280;25303;48.896;13.342;2022-08-19T11:36:15;92437.72;;;26.00;55.37
39613;BME280;25303;48.896;13.342;2022-08-19T11:39:01;92424.78;;;25.99;55.89
39613;BME280;25303;48.896;13.342;2022-08-19T11:41:44;92424.53;;;26.11;55.09
39613;BME280;25303;48.896;13.342;2022-08-19T11:44:28;92408.47;;;26.33;55.08
39613;BME280;25303;48.896;13.342;2022-08-19T11:47:12;92413.47;;;26.65;54.86
39613;BME280;25303;48.896;13.342;2022-08-19T11:49:55;92418.94;;;27.05;54.03
39613;BME280;25303;48.896;13.342;2022-08-19T11:52:38;92428.56;;;27.41;52.52
39613;BME280;25303;48.896;13.342;2022-08-19T11:55:23;92422.34;;;27.77;52.85
39613;BME280;25303;48.896;13.342;2022-08-19T11:58:06;92424.00;;;28.12;50.86
39613;BME280;25303;48.896;13.342;2022-08-19T12:01:00;92428.81;;;28.40;49.14
39613;BME280;25303;48.896;13.342;2022-08-19T12:03:44;92427.94;;;28.49;49.13
39613;BME280;25303;48.896;13.342;2022-08-19T12:06:29;92423.09;;;28.57;45.83
39613;BME280;25303;48.896;13.342;2022-08-19T12:09:13;92424.28;;;28.45;46.99
39613;BME280;25303;48.896;13.342;2022-08-19T12:11:58;92434.09;;;28.45;46.61
39613;BME280;25303;48.896;13.342;2022-08-19T12:14:42;92434.69;;;28.31;46.65
39613;BME280;25303;48.896;13.342;2022-08-19T12:17:26;92421.31;;;28.17;46.79
39613;BME280;25303;48.896;13.342;2022-08-19T12:20:12;92422.94;;;28.13;47.50
39613;BME280;25303;48.896;13.342;2022-08-19T12:22:57;92435.88;;;28.15;47.11
39613;BME280;25303;48.896;13.342;2022-08-19T12:25:45;92442.22;;;28.19;47.03
39613;BME280;25303;48.896;13.342;2022-08-19T12:28:33;92444.28;;;28.27;46.76
39613;BME280;25303;48.896;13.342;2022-08-19T12:31:15;92451.06;;;28.39;43.86
39613;BME280;25303;48.896;13.342;2022-08-19T12:33:59;92444.69;;;28.45;46.07
39613;BME280;25303;48.896;13.342;2022-08-19T12:36:44;92443.53;;;28.51;45.80
39613;BME280;25303;48.896;13.342;2022-08-19T12:39:27;92446.59;;;28.63;45.98
39613;BME280;25303;48.896;13.342;2022-08-19T12:42:12;92450.03;;;28.69;45.36
39613;BME280;25303;48.896;13.342;2022-08-19T12:44:57;92448.94;;;28.75;45.41
39613;BME280;25303;48.896;13.342;2022-08-19T12:47:40;92428.72;;;28.85;45.26
39613;BME280;25303;48.896;13.342;2022-08-19T12:50:26;92426.16;;;28.99;44.72
39613;BME280;25303;48.896;13.342;2022-08-19T12:53:10;92432.31;;;29.18;44.24
39613;BME280;25303;48.896;13.342;2022-08-19T12:55:55;92432.22;;;29.29;43.90
39613;BME280;25303;48.896;13.342;2022-08-19T12:58:39;92423.38;;;29.38;43.31
39613;BME280;25303;48.896;13.342;2022-08-19T13:01:35;92421.22;;;29.40;42.88
39613;BME280;25303;48.896;13.342;2022-08-19T13:04:18;92418.63;;;29.11;41.45
39613;BME280;25303;48.896;13.342;2022-08-19T13:07:01;92428.25;;;28.77;42.71
39613;BME280;25303;48.896;13.342;2022-08-19T13:09:44;92423.75;;;28.73;43.30
39613;BME280;25303;48.896;13.342;2022-08-19T13:12:27;92423.69;;;28.83;41.84
39613;BME280;25303;48.896;13.342;2022-08-19T13:15:11;92434.47;;;28.92;42.20
39613;BME280;25303;48.896;13.342;2022-08-19T13:17:57;92438.28;;;28.80;41.39
39613;BME280;25303;48.896;13.342;2022-08-19T13:20:41;92441.00;;;29.00;41.20
39613;BME280;25303;48.896;13.342;2022-08-19T13:23:34;92446.94;;;29.16;41.08
39613;BME280;25303;48.896;13.342;2022-08-19T13:26:17;92446.09;;;28.96;39.59
39613;BME280;25303;48.896;13.342;2022-08-19T13:29:00;92446.78;;;28.72;40.70
39613;BME280;25303;48.896;13.342;2022-08-19T13:32:01;92444.06;;;28.53;40.42
39613;BME280;25303;48.896;13.342;2022-08-19T13:35:05;92444.47;;;28.36;40.68
39613;BME280;25303;48.896;13.342;2022-08-19T13:37:48;92450.94;;;28.19;41.41
39613;BME280;25303;48.896;13.342;2022-08-19T13:40:32;92447.56;;;28.09;41.63
39613;BME280;25303;48.896;13.342;2022-08-19T13:43:20;92437.84;;;27.94;41.89
39613;BME280;25303;48.896;13.342;2022-08-19T13:46:09;92433.91;;;27.91;42.36
39613;BME280;25303;48.896;13.342;2022-08-19T13:48:54;92419.53;;;28.02;42.26
39613;BME280;25303;48.896;13.342;2022-08-19T13:51:39;92413.31;;;28.23;42.06
39613;BME280;25303;48.896;13.342;2022-08-19T13:54:22;92410.06;;;28.36;42.01
39613;BME280;25303;48.896;13.342;2022-08-19T13:57:06;92404.31;;;28.58;41.64
39613;BME280;25303;48.896;13.342;2022-08-19T13:59:49;92409.72;;;28.72;41.06
39613;BME280;25303;48.896;13.342;2022-08-19T14:02:32;92412.88;;;28.79;40.54
39613;BME280;25303;48.896;13.342;2022-08-19T14:05:16;92414.41;;;28.86;40.39
39613;BME280;25303;48.896;13.342;2022-08-19T14:08:02;92419.59;;;28.96;40.22
39613;BME280;25303;48.896;13.342;2022-08-19T14:10:45;92428.56;;;29.00;40.38
39613;BME280;25303;48.896;13.342;2022-08-19T14:13:28;92418.50;;;28.97;39.69
39613;BME280;25303;48.896;13.342;2022-08-19T14:16:13;92413.78;;;28.94;40.48
39613;BME280;25303;48.896;13.342;2022-08-19T14:18:56;92413.50;;;28.95;39.76
39613;BME280;25303;48.896;13.342;2022-08-19T14:21:39;92407.19;;;28.91;40.26
39613;BME280;25303;48.896;13.342;2022-08-19T14:24:24;92407.13;;;28.96;40.21
39613;BME280;25303;48.896;13.342;2022-08-19T14:27:07;92401.00;;;29.01;39.46
39613;BME280;25303;48.896;13.342;2022-08-19T14:29:51;92408.09;;;29.06;40.27